Barter Island Lrrs Airport
PABA : now visible

Aeroporto :











RITROVATECI SU...

 
LOGIN :

Iscrizione | Disclaimer

   EN    FR    IT 

 









Sommario :    VFR   VFR Marginale   IFR   IFR Intensivo   IFR Molto Intensivo
Visibilità : 
Base nubi : 
>= 8 km
>= 3000ft
5 / 8 km
1000 / 3000 ft
1500m / 5 km
500 / 1000 ft
800 / 1500m
200 / 500 ft
< 800m
< 200 ft
Simboli :   Temporali  Nebbia  Neve Forte  Precipitazioni Forti  Vento > 20 kt






- Altitudine del aeroporto : 2 ft
- Codice IATA : BTI


PABA - Barter Island Lrrs

ULTIMO METAR :
  • 270952Z AUTO 09011KT 4SM BR OVC002 M01/M02 A3021 RMK AO2 SLP237 T10111017 FZRANO TSNO

METARs OBSOLETI :
  • 270852Z AUTO 09011KT 4SM BR OVC002 M01/M02 A3019 RMK AO2 SNE11 SLP231 P0000 60000 T10111017 400001022 53016 FZRANO TSNO
  • 270815Z AUTO 09014KT 3SM BR OVC002 M01/M02 A3018 RMK AO2 SNE11 P0000 FZRANO TSNO
  • 270810Z AUTO 09012KT 1 1/4SM -SN BR OVC002 M01/M02 A3018 RMK AO2 P0000 FZRANO TSNO
  • 270759Z AUTO 09011KT 3/4SM -SN BR OVC002 M01/M02 A3018 RMK AO2 P0000 FZRANO TSNO
  • 270752Z AUTO 09012KT 1SM -SN BR OVC002 M01/M02 A3018 RMK AO2 UPB0657E00B33E47SNE0657B20E33B47 SLP225 P0000 T10111017 FZRANO TSNO
  • 270742Z AUTO 09011KT 3/4SM UP BR OVC002 M01/M02 A3017 RMK AO2 UPB0657E00B33SNE0657B20E33 P0000 FZRANO TSNO
  • 270728Z AUTO 09011KT 1/2SM -SN FZFG OVC002 M02/M02 A3017 RMK AO2 UPB0657E00SNE0657B20 P0000 FZRANO TSNO

Previsioni scadute.
FIR PAZA / America del Nord



MetMap, La meteo Aeronautica in un colpo d'occhio ! - Copyright ORBIFLY Dicembre 2007 - Disclaimer

ORBIFLY MET'MAP TEAM :

Programmazione e sviluppo : Alexandra Zaïnal
Concezione : Baudouin d'Aumeries
Aiuto per la programmazione : Marc-Olivier Méhu
Supporto tecnico e logistico : Manuel Goepfert
Aiuto per la traduzione : Arnaldo La Scala

Contatto : metmap@orbifly.com




FONTI E CREDITI :

   NOAA       Earth
Advisory